createdAt,value
2023-04-13T06:40:21.873Z,124650.72
2023-04-13T06:42:48.748Z,127881.78
2023-04-13T06:45:15.545Z,128258.00
2023-04-13T06:47:42.882Z,129718.78
2023-04-13T06:50:13.902Z,130445.00
2023-04-13T06:52:43.866Z,131550.53
2023-04-13T06:55:11.122Z,128306.81
2023-04-13T06:57:37.906Z,125785.56
2023-04-13T07:00:21.828Z,127934.91
2023-04-13T07:02:55.703Z,128644.41
2023-04-13T07:05:22.712Z,128646.63
2023-04-13T07:07:49.548Z,130503.63
2023-04-13T07:10:16.584Z,129852.34
2023-04-13T07:12:43.448Z,126969.63
2023-04-13T07:15:10.429Z,128441.16
2023-04-13T07:17:37.307Z,125885.78
2023-04-13T07:20:05.700Z,125215.13
2023-04-13T07:22:33.578Z,124832.22
2023-04-13T07:25:00.793Z,127745.38
2023-04-13T07:27:28.136Z,128824.81
2023-04-13T07:29:55.455Z,129605.03
2023-04-13T07:32:24.472Z,129284.59
2023-04-13T07:34:59.603Z,129290.16
2023-04-13T07:37:26.599Z,129304.72
2023-04-13T07:39:53.451Z,130788.13
2023-04-13T07:42:20.354Z,130841.22
2023-04-13T07:44:47.196Z,129729.34
2023-04-13T07:47:14.252Z,130092.72
2023-04-13T07:49:41.098Z,127905.66
2023-04-13T07:52:07.952Z,129708.09
2023-04-13T07:54:36.338Z,131558.69
2023-04-13T07:57:03.931Z,128350.41
2023-04-13T07:59:30.917Z,131212.94
2023-04-13T08:01:58.026Z,128324.91
2023-04-13T08:04:25.879Z,131246.91
2023-04-13T08:06:54.002Z,128380.38
2023-04-13T08:09:21.368Z,128713.47
2023-04-13T08:11:49.556Z,132030.88
2023-04-13T08:14:16.663Z,129851.56
2023-04-13T08:16:43.483Z,130237.72
2023-04-13T08:19:25.915Z,128074.88
2023-04-13T08:21:52.803Z,126201.97
2023-04-13T08:24:22.411Z,126187.81
2023-04-13T08:26:49.393Z,126251.09
2023-04-13T08:29:16.167Z,131722.25
2023-04-13T08:31:42.970Z,131048.03
2023-04-13T08:34:10.805Z,130701.88
2023-04-13T08:36:38.452Z,134091.94
2023-04-13T08:39:10.239Z,130378.28
2023-04-13T08:41:43.447Z,132286.16
2023-04-13T08:44:13.425Z,132013.34
2023-04-13T08:46:43.788Z,130224.03
2023-04-13T08:49:12.976Z,125441.50
2023-04-13T08:51:43.430Z,128290.69
2023-04-13T08:54:12.801Z,130571.81
2023-04-13T08:56:46.584Z,130264.44
2023-04-13T08:59:16.140Z,125494.56
2023-04-13T09:01:46.546Z,126869.78
2023-04-13T09:04:17.989Z,129116.31
2023-04-13T09:06:50.936Z,125467.50
2023-04-13T09:09:19.246Z,122911.97
2023-04-13T09:11:47.875Z,116080.88
2023-04-13T09:14:22.129Z,116786.47
2023-04-13T09:16:49.937Z,120324.56
2023-04-13T09:19:28.764Z,118541.66
2023-04-13T09:21:56.198Z,124276.13
2023-04-13T09:24:23.486Z,121039.47
2023-04-13T09:26:50.925Z,119983.38
2023-04-13T09:29:21.815Z,121416.53
2023-04-13T09:31:48.971Z,121791.66
2023-04-13T09:34:29.445Z,122495.94
2023-04-13T09:36:59.544Z,124308.34
2023-04-13T09:39:29.184Z,125051.69
2023-04-13T09:41:57.939Z,126527.34
2023-04-13T09:44:27.393Z,126517.47
2023-04-13T09:47:01.789Z,130915.13
2023-04-13T09:49:38.599Z,128367.13
2023-04-13T09:52:23.532Z,128358.25
2023-04-13T09:54:57.182Z,123317.72
2023-04-13T09:57:29.560Z,121840.09
2023-04-13T10:00:07.151Z,128367.13
2023-04-13T10:02:34.359Z,128771.06
2023-04-13T10:05:02.440Z,124717.09
2023-04-13T10:07:30.719Z,117519.88
2023-04-13T10:09:57.543Z,122522.44
2023-04-13T10:12:26.777Z,120679.38
2023-04-13T10:15:03.966Z,125307.16
2023-04-13T10:18:26.010Z,121238.06
2023-04-13T10:20:54.377Z,130487.72
2023-04-13T10:23:21.838Z,126430.97
2023-04-13T10:25:57.484Z,134167.97
2023-04-13T10:28:26.254Z,128795.78
2023-04-13T10:30:54.369Z,130551.06
2023-04-13T10:33:21.426Z,132374.13
2023-04-13T10:35:59.502Z,135681.59
2023-04-13T10:38:27.521Z,130261.34
2023-04-13T10:40:54.330Z,133516.06
2023-04-13T10:43:32.351Z,134265.28
2023-04-13T10:46:11.163Z,132785.91
2023-04-13T10:48:38.461Z,127662.56
2023-04-13T10:51:05.415Z,131642.69
2023-04-13T10:53:33.367Z,131338.44
2023-04-13T10:56:01.348Z,132053.94
2023-04-13T10:58:33.131Z,132031.13
2023-04-13T11:01:00.625Z,136084.03
2023-04-13T11:04:04.394Z,134658.78
2023-04-13T11:06:39.996Z,134353.44
2023-04-13T11:09:07.880Z,135886.59
2023-04-13T11:11:37.749Z,137063.34
2023-04-13T11:14:04.650Z,131171.00
2023-04-13T11:16:31.677Z,137072.78
2023-04-13T11:19:03.490Z,137484.88
2023-04-13T11:21:31.783Z,137940.13
2023-04-13T11:24:02.447Z,137231.09
2023-04-13T11:26:39.763Z,134254.97
2023-04-13T11:29:16.967Z,131965.94
2023-04-13T11:31:43.902Z,136394.16
2023-04-13T11:34:13.911Z,137896.19
2023-04-13T11:36:42.164Z,136439.97
2023-04-13T11:39:10.634Z,137162.56
2023-04-13T11:41:44.208Z,138760.50
2023-04-13T11:44:14.607Z,137253.53
2023-04-13T11:46:41.919Z,136148.00
2023-04-13T11:49:08.977Z,131321.69
2023-04-13T11:51:37.067Z,137214.53
2023-04-13T11:54:04.558Z,138023.34
2023-04-13T11:56:31.368Z,131709.75
2023-04-13T12:01:29.096Z,133842.50
2023-04-13T12:04:14.665Z,134232.97
2023-04-13T12:06:47.388Z,131303.59
2023-04-13T12:09:17.318Z,128706.81
2023-04-13T12:11:50.055Z,130524.94
2023-04-13T12:19:26.746Z,127267.53
2023-04-13T12:21:56.687Z,129454.47
2023-04-13T12:24:39.891Z,127308.22
2023-04-13T12:29:40.961Z,128693.47
2023-04-13T12:32:16.916Z,130127.53
2023-04-13T12:34:44.779Z,126879.72
2023-04-13T12:37:12.140Z,131624.56
2023-04-13T12:39:39.103Z,134179.75
2023-04-13T12:42:06.232Z,138748.59
2023-04-13T12:44:34.394Z,140416.31
2023-04-13T12:47:02.470Z,138967.19
2023-04-13T12:49:29.930Z,130801.19
2023-04-13T12:51:56.879Z,130328.81
2023-04-13T12:54:23.686Z,127003.69
2023-04-13T12:56:50.460Z,127640.16
2023-04-13T12:59:17.743Z,131894.19
2023-04-13T13:01:44.722Z,132583.44
2023-04-13T13:04:11.988Z,138447.84
2023-04-13T13:06:38.762Z,135947.53
2023-04-13T13:09:31.948Z,137425.72
2023-04-13T13:11:58.860Z,132261.69
2023-04-13T13:14:25.822Z,137328.63
2023-04-13T13:16:53.110Z,139299.06
2023-04-13T13:19:20.045Z,139037.75
2023-04-13T13:21:46.860Z,135777.44
2023-04-13T13:24:13.684Z,132183.59
2023-04-13T13:29:13.127Z,133636.59
2023-04-13T13:31:41.336Z,134418.22
2023-04-13T13:34:08.149Z,128909.25
2023-04-13T13:36:34.902Z,127850.91
2023-04-13T13:39:01.816Z,126401.75
2023-04-13T13:41:28.720Z,129309.75
2023-04-13T13:43:55.658Z,129685.97
2023-04-13T13:46:22.515Z,130079.22
2023-04-13T13:48:49.323Z,132632.97
2023-04-13T13:51:16.261Z,129002.72
2023-04-13T13:53:43.054Z,126784.38
2023-04-13T13:56:09.847Z,121656.88
2023-04-13T13:58:36.637Z,120061.25
2023-04-13T14:01:04.801Z,119138.41
2023-04-13T14:03:32.613Z,127105.75
2023-04-13T14:05:59.802Z,130878.06
2023-04-13T14:08:26.609Z,130526.19
2023-04-13T14:10:53.469Z,131949.03
2023-04-13T14:13:20.595Z,135494.09
2023-04-13T14:15:47.572Z,134851.38
2023-04-13T14:18:14.895Z,137423.28
2023-04-13T14:20:43.257Z,136655.84
2023-04-13T14:23:10.339Z,137401.91
2023-04-13T14:25:38.672Z,137464.78
2023-04-13T14:28:06.717Z,138241.75
2023-04-13T14:30:33.715Z,137903.16
2023-04-13T14:33:01.299Z,139017.22
2023-04-13T14:35:28.204Z,139423.34
2023-04-13T14:37:55.024Z,138682.03
2023-04-13T14:40:23.336Z,139804.53
2023-04-13T14:42:53.960Z,140615.97
2023-04-13T14:46:05.327Z,141774.47
2023-04-13T14:48:33.417Z,140265.75
2023-04-13T14:51:00.288Z,139901.03
2023-04-13T14:53:27.166Z,140283.84
2023-04-13T14:55:54.018Z,139186.44
2023-04-13T14:58:21.510Z,137724.97
2023-04-13T15:00:48.345Z,138053.22
2023-04-13T15:03:15.836Z,139880.47
2023-04-13T15:05:46.212Z,141337.28
2023-04-13T15:08:15.708Z,142463.59
2023-04-13T15:10:42.863Z,142899.22
2023-04-13T15:13:09.782Z,141802.53
2023-04-13T15:16:28.030Z,143733.69
2023-04-13T15:18:54.848Z,143431.69
2023-04-13T15:21:21.770Z,142283.19
2023-04-13T15:23:48.522Z,141918.63
2023-04-13T15:26:19.755Z,142708.03
2023-04-13T15:28:46.761Z,141572.50
2023-04-13T15:31:13.627Z,140471.38
2023-04-13T15:33:40.425Z,141226.47
2023-04-13T15:36:08.554Z,140880.41
2023-04-13T15:38:35.390Z,140464.13
2023-04-13T15:41:02.171Z,140466.53
2023-04-13T15:43:28.997Z,140384.28
2023-04-13T15:45:56.421Z,140825.78
2023-04-13T15:48:23.377Z,141545.72
2023-04-13T15:50:58.486Z,140499.22
2023-04-13T15:53:26.859Z,140015.66
2023-04-13T15:55:53.943Z,138172.41
2023-04-13T15:58:21.562Z,139265.72
2023-04-13T16:01:00.513Z,140390.31
2023-04-13T16:03:27.567Z,139983.13
2023-04-13T16:05:54.443Z,139637.59
2023-04-13T16:08:21.679Z,141136.47
2023-04-13T16:10:48.816Z,140091.72
2023-04-13T16:13:19.249Z,139733.91
2023-04-13T16:15:55.583Z,141631.06
2023-04-13T16:18:32.245Z,141289.72
2023-04-13T16:21:02.226Z,141276.38
2023-04-13T16:23:30.600Z,140121.91
2023-04-13T16:25:57.450Z,138235.53
2023-04-13T16:28:24.322Z,136430.25
2023-04-13T16:30:51.208Z,138264.16
2023-04-13T16:33:18.006Z,137898.56
2023-04-13T16:35:44.770Z,136394.91
2023-04-13T16:38:11.994Z,137832.00
2023-04-13T16:40:38.790Z,137087.22
2023-04-13T16:43:05.813Z,136637.25
2023-04-13T16:45:33.229Z,132515.38
2023-04-13T16:48:00.057Z,129723.72
2023-04-13T16:50:31.950Z,130957.59
2023-04-13T16:52:59.529Z,134075.44
2023-04-13T16:55:28.502Z,134087.06
2023-04-13T16:57:56.055Z,132678.09
2023-04-13T17:00:23.535Z,131716.16
2023-04-13T17:02:52.999Z,126223.56
2023-04-13T17:05:20.089Z,138213.22
2023-04-13T17:07:48.080Z,138611.97
2023-04-13T17:10:15.131Z,138223.97
2023-04-13T17:12:42.250Z,138232.31
2023-04-13T17:15:10.306Z,139334.53
2023-04-13T17:17:38.234Z,138292.09
2023-04-13T17:20:06.932Z,139802.81
2023-04-13T17:22:33.757Z,138762.97
2023-04-13T17:25:00.965Z,137355.59
2023-04-13T17:27:27.861Z,138092.56
2023-04-13T17:29:54.926Z,137066.06
2023-04-13T17:32:22.294Z,136693.59
2023-04-13T17:34:50.180Z,137779.34
2023-04-13T17:37:17.984Z,136721.97
2023-04-13T17:39:49.515Z,135988.00
2023-04-13T17:42:17.307Z,136357.88
2023-04-13T17:44:44.476Z,135601.88
2023-04-13T17:47:11.336Z,136313.13
2023-04-13T17:49:38.656Z,136322.53
2023-04-13T17:52:05.442Z,135928.06
2023-04-13T17:54:33.014Z,135933.97
2023-04-13T17:57:01.676Z,136307.22
2023-04-13T17:59:28.585Z,135941.00
2023-04-13T18:01:56.070Z,135230.00
2023-04-13T18:04:23.124Z,136642.84
2023-04-13T18:06:50.051Z,135910.47
2023-04-13T18:09:17.015Z,135460.13
2023-04-13T18:11:44.339Z,135460.13
2023-04-13T18:14:15.990Z,59356.41
2023-04-13T18:16:42.973Z,59356.41
2023-04-13T18:19:09.846Z,59356.41
2023-04-13T18:21:37.210Z,59356.41
2023-04-13T18:24:04.381Z,59356.41
2023-04-13T18:26:31.364Z,59356.41
2023-04-13T18:28:58.166Z,59356.41
2023-04-13T18:31:25.349Z,59356.41
2023-04-13T18:33:54.533Z,59356.41
2023-04-13T18:36:21.447Z,59356.41
2023-04-13T18:38:48.248Z,59356.41
2023-04-13T18:41:15.143Z,59356.41
2023-04-13T18:43:41.944Z,59356.41
2023-04-13T18:46:09.088Z,59356.41
2023-04-13T18:48:36.113Z,59356.41
2023-04-13T18:51:03.562Z,59356.41
2023-04-13T18:53:31.004Z,59356.41
2023-04-13T18:55:58.852Z,59356.41
2023-04-13T18:58:26.461Z,59356.41
2023-04-13T19:00:53.363Z,59356.41
2023-04-13T19:03:20.337Z,59356.41
2023-04-13T19:05:58.186Z,59356.41
2023-04-13T19:08:24.996Z,59356.41
2023-04-13T19:10:51.761Z,59356.41
2023-04-13T19:13:18.892Z,59356.41
2023-04-13T19:15:45.700Z,59356.41
2023-04-13T19:18:12.506Z,59356.41
2023-04-13T19:20:39.390Z,59356.41
2023-04-13T19:23:06.722Z,59356.41
2023-04-13T19:25:33.536Z,59356.41
2023-04-13T19:28:00.653Z,59356.41
2023-04-13T19:30:27.774Z,59356.41
2023-04-13T19:32:54.883Z,59356.41
2023-04-13T19:35:24.314Z,59356.41
2023-04-13T19:37:51.190Z,59356.41
2023-04-13T19:41:08.975Z,59356.41
2023-04-13T19:43:35.832Z,59356.41
2023-04-13T19:46:02.678Z,59356.41
2023-04-13T19:48:29.503Z,59356.41
2023-04-13T19:50:56.364Z,59356.41
2023-04-13T19:53:23.170Z,59356.41
2023-04-13T19:55:51.226Z,59356.41
2023-04-13T19:58:18.433Z,59356.41
2023-04-13T20:00:47.309Z,59356.41
2023-04-13T20:03:14.359Z,59356.41
2023-04-13T20:05:41.989Z,59356.41
2023-04-13T20:08:09.250Z,59356.41
2023-04-13T20:11:13.568Z,59356.41
2023-04-13T20:13:41.478Z,59356.41
2023-04-13T20:16:10.049Z,59356.41
2023-04-13T20:18:36.995Z,59356.41
2023-04-13T20:21:04.282Z,59356.41
2023-04-13T20:23:31.434Z,59356.41
2023-04-13T20:25:58.344Z,59356.41
2023-04-13T20:28:25.293Z,59356.41
2023-04-13T20:30:52.493Z,59356.41
2023-04-13T20:33:19.465Z,59356.41
2023-04-13T20:35:46.325Z,59356.41
2023-04-13T20:38:13.870Z,59356.41
2023-04-13T20:40:41.712Z,59356.41
2023-04-13T20:43:09.642Z,59356.41
2023-04-13T20:45:36.660Z,59356.41
2023-04-13T20:50:35.646Z,59356.41
2023-04-13T20:53:03.540Z,59356.41
2023-04-13T20:55:30.756Z,59356.41
2023-04-13T20:57:57.602Z,59356.41
2023-04-13T21:00:25.010Z,59356.41
2023-04-13T21:02:53.105Z,59356.41
2023-04-13T21:05:22.166Z,59356.41
2023-04-13T21:07:50.078Z,59356.41
2023-04-13T21:10:17.706Z,59356.41
2023-04-13T21:12:44.599Z,59356.41
2023-04-13T21:15:11.847Z,59356.41
2023-04-13T21:17:38.927Z,59356.41
2023-04-13T21:20:08.841Z,59356.41
2023-04-13T21:22:36.813Z,59356.41
2023-04-13T21:25:05.340Z,59356.41
2023-04-13T21:27:32.549Z,59356.41
2023-04-13T21:30:01.147Z,59356.41
2023-04-13T21:32:28.056Z,59356.41
2023-04-13T21:34:55.750Z,59356.41
2023-04-13T21:37:22.508Z,59356.41
2023-04-13T21:39:49.300Z,59356.41
2023-04-13T21:42:16.920Z,59356.41
2023-04-13T21:44:43.712Z,59356.41
2023-04-13T21:47:10.543Z,59356.41
2023-04-13T21:49:37.420Z,59356.41
2023-04-13T21:52:04.667Z,59356.41
2023-04-13T21:54:31.422Z,59356.41
2023-04-13T21:56:58.270Z,59356.41
2023-04-13T21:59:27.232Z,59356.41
2023-04-13T22:01:57.124Z,59356.41
2023-04-13T22:04:24.325Z,59356.41
2023-04-13T22:06:51.254Z,59356.41
2023-04-13T22:09:18.095Z,59356.41
2023-04-13T22:11:44.983Z,59356.41
2023-04-13T22:14:11.761Z,59356.41
2023-04-13T22:16:38.554Z,59356.41
2023-04-13T22:19:05.555Z,59356.41
2023-04-13T22:21:35.986Z,59356.41
2023-04-13T22:24:03.039Z,59356.41
2023-04-13T22:26:30.549Z,59356.41
2023-04-13T22:28:57.466Z,59356.41
2023-04-13T22:31:24.466Z,59356.41
2023-04-13T22:33:51.324Z,59356.41
2023-04-13T22:36:20.626Z,59356.41
2023-04-13T22:38:48.310Z,59356.41
2023-04-13T22:41:16.093Z,59356.41
2023-04-13T22:43:42.972Z,59356.41
2023-04-13T22:46:09.862Z,59356.41
2023-04-13T22:48:36.716Z,59356.41
2023-04-13T22:51:03.827Z,59356.41
2023-04-13T22:53:31.103Z,59356.41
2023-04-13T22:55:59.386Z,59356.41
2023-04-13T22:58:26.446Z,59356.41
2023-04-13T23:00:53.348Z,59356.41
2023-04-13T23:03:21.243Z,59356.41
2023-04-13T23:05:48.293Z,59356.41
2023-04-13T23:08:15.323Z,59356.41
2023-04-13T23:10:42.207Z,59356.41
2023-04-13T23:13:08.962Z,59356.41
2023-04-13T23:15:35.842Z,59356.41
2023-04-13T23:18:02.781Z,59356.41
2023-04-13T23:20:30.139Z,59356.41
2023-04-13T23:22:57.180Z,59356.41
2023-04-13T23:25:24.276Z,59356.41
2023-04-13T23:27:51.189Z,59356.41
2023-04-13T23:30:18.200Z,59356.41
2023-04-13T23:32:45.098Z,59356.41
2023-04-13T23:35:11.961Z,59356.41
2023-04-13T23:37:40.648Z,59356.41
2023-04-13T23:40:09.083Z,59356.41
2023-04-13T23:42:35.965Z,59356.41
2023-04-13T23:45:02.856Z,59356.41
2023-04-13T23:47:29.936Z,59356.41
2023-04-13T23:49:56.941Z,59356.41
2023-04-13T23:52:23.745Z,59356.41
2023-04-13T23:54:50.563Z,59356.41
2023-04-13T23:57:17.365Z,59356.41
2023-04-13T23:59:44.154Z,59356.41
